sensor_id;sensor_type;location;lat;lon;timestamp;pressure;altitude;pressure_sealevel;temperature;humidity
54876;BME280;40764;48.472;8.166;2023-04-03T00:00:56;98840.88;;;5.69;85.14
54876;BME280;40764;48.472;8.166;2023-04-03T00:07:00;98845.81;;;5.55;83.93
54876;BME280;40764;48.472;8.166;2023-04-03T00:13:01;98847.41;;;5.51;83.46
54876;BME280;40764;48.472;8.166;2023-04-03T00:19:05;98843.09;;;5.38;83.19
54876;BME280;40764;48.472;8.166;2023-04-03T00:25:06;98853.13;;;5.38;83.75
54876;BME280;40764;48.472;8.166;2023-04-03T00:31:06;98850.50;;;5.43;83.65
54876;BME280;40764;48.472;8.166;2023-04-03T00:37:07;98855.94;;;5.59;83.46
54876;BME280;40764;48.472;8.166;2023-04-03T00:43:13;98855.25;;;5.36;83.38
54876;BME280;40764;48.472;8.166;2023-04-03T00:49:14;98864.06;;;5.26;82.73
54876;BME280;40764;48.472;8.166;2023-04-03T00:55:15;98847.34;;;5.17;82.41
54876;BME280;40764;48.472;8.166;2023-04-03T01:01:22;98845.44;;;5.01;81.78
54876;BME280;40764;48.472;8.166;2023-04-03T01:07:28;98853.38;;;4.91;81.99
54876;BME280;40764;48.472;8.166;2023-04-03T01:13:32;98843.06;;;5.05;81.81
54876;BME280;40764;48.472;8.166;2023-04-03T01:19:33;98849.47;;;4.98;82.14
54876;BME280;40764;48.472;8.166;2023-04-03T01:25:38;98848.69;;;4.86;82.12
54876;BME280;40764;48.472;8.166;2023-04-03T01:31:54;98850.91;;;4.89;81.74
54876;BME280;40764;48.472;8.166;2023-04-03T01:37:55;98844.91;;;4.87;81.55
54876;BME280;40764;48.472;8.166;2023-04-03T01:43:55;98848.56;;;5.10;80.86
54876;BME280;40764;48.472;8.166;2023-04-03T01:49:56;98852.25;;;5.04;81.00
54876;BME280;40764;48.472;8.166;2023-04-03T01:55:56;98844.88;;;4.99;79.60
54876;BME280;40764;48.472;8.166;2023-04-03T02:01:57;98838.88;;;4.97;80.68
54876;BME280;40764;48.472;8.166;2023-04-03T02:07:57;98837.72;;;5.10;80.30
54876;BME280;40764;48.472;8.166;2023-04-03T02:13:57;98839.13;;;4.95;80.73
54876;BME280;40764;48.472;8.166;2023-04-03T02:19:58;98842.31;;;4.92;80.76
54876;BME280;40764;48.472;8.166;2023-04-03T02:26:24;98829.34;;;5.11;80.28
54876;BME280;40764;48.472;8.166;2023-04-03T02:32:25;98835.09;;;4.98;80.14
54876;BME280;40764;48.472;8.166;2023-04-03T02:38:26;98830.13;;;4.78;79.49
54876;BME280;40764;48.472;8.166;2023-04-03T02:44:27;98830.47;;;4.82;80.24
54876;BME280;40764;48.472;8.166;2023-04-03T02:50:27;98834.47;;;4.79;80.54
54876;BME280;40764;48.472;8.166;2023-04-03T02:56:27;98836.19;;;4.69;80.63
54876;BME280;40764;48.472;8.166;2023-04-03T03:02:28;98840.13;;;4.49;81.00
54876;BME280;40764;48.472;8.166;2023-04-03T03:08:28;98846.25;;;4.45;81.18
54876;BME280;40764;48.472;8.166;2023-04-03T03:14:29;98843.91;;;4.48;82.04
54876;BME280;40764;48.472;8.166;2023-04-03T03:20:29;98840.28;;;4.31;83.33
54876;BME280;40764;48.472;8.166;2023-04-03T03:26:29;98836.09;;;4.12;83.40
54876;BME280;40764;48.472;8.166;2023-04-03T03:32:30;98846.66;;;4.25;83.47
54876;BME280;40764;48.472;8.166;2023-04-03T03:38:30;98835.69;;;4.31;82.97
54876;BME280;40764;48.472;8.166;2023-04-03T03:44:31;98839.16;;;4.15;83.17
54876;BME280;40764;48.472;8.166;2023-04-03T03:50:31;98828.81;;;4.00;82.67
54876;BME280;40764;48.472;8.166;2023-04-03T03:56:34;98833.31;;;4.07;82.06
54876;BME280;40764;48.472;8.166;2023-04-03T04:02:35;98843.91;;;3.85;82.67
54876;BME280;40764;48.472;8.166;2023-04-03T04:08:35;98845.91;;;3.78;82.81
54876;BME280;40764;48.472;8.166;2023-04-03T04:14:36;98846.47;;;3.68;83.16
54876;BME280;40764;48.472;8.166;2023-04-03T04:20:36;98854.47;;;3.63;83.11
54876;BME280;40764;48.472;8.166;2023-04-03T04:26:36;98864.94;;;3.48;84.34
54876;BME280;40764;48.472;8.166;2023-04-03T04:32:37;98852.84;;;3.50;83.64
54876;BME280;40764;48.472;8.166;2023-04-03T04:38:37;98860.44;;;3.18;85.20
54876;BME280;40764;48.472;8.166;2023-04-03T04:44:39;98862.50;;;3.16;85.60
54876;BME280;40764;48.472;8.166;2023-04-03T04:50:39;98876.91;;;2.98;86.42
54876;BME280;40764;48.472;8.166;2023-04-03T04:56:40;98872.22;;;2.94;86.59
54876;BME280;40764;48.472;8.166;2023-04-03T05:02:40;98883.91;;;2.88;86.35
54876;BME280;40764;48.472;8.166;2023-04-03T05:08:41;98886.00;;;2.56;88.78
54876;BME280;40764;48.472;8.166;2023-04-03T05:14:41;98892.78;;;2.76;88.29
54876;BME280;40764;48.472;8.166;2023-04-03T05:20:42;98896.41;;;2.70;88.52
54876;BME280;40764;48.472;8.166;2023-04-03T05:26:43;98896.44;;;2.82;87.98
54876;BME280;40764;48.472;8.166;2023-04-03T05:32:44;98899.03;;;2.77;88.64
54876;BME280;40764;48.472;8.166;2023-04-03T05:38:45;98897.69;;;2.68;88.54
54876;BME280;40764;48.472;8.166;2023-04-03T05:44:45;98900.31;;;2.74;89.01
54876;BME280;40764;48.472;8.166;2023-04-03T05:50:47;98905.47;;;2.76;89.80
54876;BME280;40764;48.472;8.166;2023-04-03T05:56:47;98910.88;;;2.76;89.09
54876;BME280;40764;48.472;8.166;2023-04-03T06:02:47;98913.63;;;2.88;89.06
54876;BME280;40764;48.472;8.166;2023-04-03T06:08:48;98916.59;;;2.68;89.64
54876;BME280;40764;48.472;8.166;2023-04-03T06:14:48;98926.28;;;2.87;89.46
54876;BME280;40764;48.472;8.166;2023-04-03T06:20:49;98924.06;;;3.14;88.55
54876;BME280;40764;48.472;8.166;2023-04-03T06:26:50;98919.31;;;3.28;85.56
54876;BME280;40764;48.472;8.166;2023-04-03T06:32:51;98924.22;;;3.84;81.94
54876;BME280;40764;48.472;8.166;2023-04-03T06:38:52;98925.50;;;4.17;81.59
54876;BME280;40764;48.472;8.166;2023-04-03T06:44:52;98931.63;;;4.35;81.16
54876;BME280;40764;48.472;8.166;2023-04-03T06:50:53;98924.28;;;4.48;76.65
54876;BME280;40764;48.472;8.166;2023-04-03T06:56:53;98932.88;;;4.56;72.58
54876;BME280;40764;48.472;8.166;2023-04-03T07:02:53;98939.53;;;4.77;72.09
54876;BME280;40764;48.472;8.166;2023-04-03T07:08:55;98947.38;;;4.90;71.38
54876;BME280;40764;48.472;8.166;2023-04-03T07:14:55;98951.44;;;4.76;66.96
54876;BME280;40764;48.472;8.166;2023-04-03T07:20:55;98957.63;;;5.00;67.59
54876;BME280;40764;48.472;8.166;2023-04-03T07:26:56;98963.72;;;5.36;66.91
54876;BME280;40764;48.472;8.166;2023-04-03T07:32:56;98952.34;;;5.22;64.52
54876;BME280;40764;48.472;8.166;2023-04-03T07:38:56;98957.63;;;5.28;63.55
54876;BME280;40764;48.472;8.166;2023-04-03T07:44:57;98964.88;;;5.40;63.27
54876;BME280;40764;48.472;8.166;2023-04-03T07:51:02;98972.84;;;5.46;60.90
54876;BME280;40764;48.472;8.166;2023-04-03T07:57:03;98967.22;;;5.65;62.49
54876;BME280;40764;48.472;8.166;2023-04-03T08:03:04;98963.66;;;5.93;62.44
54876;BME280;40764;48.472;8.166;2023-04-03T08:09:05;98968.41;;;6.19;62.05
54876;BME280;40764;48.472;8.166;2023-04-03T08:15:06;98960.00;;;6.37;61.69
54876;BME280;40764;48.472;8.166;2023-04-03T08:21:10;98967.03;;;6.55;61.49
54876;BME280;40764;48.472;8.166;2023-04-03T08:27:10;98970.38;;;6.62;60.49
54876;BME280;40764;48.472;8.166;2023-04-03T08:33:11;98969.47;;;6.95;60.23
54876;BME280;40764;48.472;8.166;2023-04-03T08:39:12;98979.75;;;6.93;61.12
54876;BME280;40764;48.472;8.166;2023-04-03T08:51:22;98979.81;;;6.76;60.04
54876;BME280;40764;48.472;8.166;2023-04-03T09:03:30;98982.34;;;7.27;56.35
54876;BME280;40764;48.472;8.166;2023-04-03T09:09:41;98978.69;;;7.16;56.59
54876;BME280;40764;48.472;8.166;2023-04-03T09:15:44;98973.00;;;7.44;56.34
54876;BME280;40764;48.472;8.166;2023-04-03T09:21:44;98979.53;;;7.70;56.59
54876;BME280;40764;48.472;8.166;2023-04-03T09:27:45;98987.13;;;7.68;56.08
54876;BME280;40764;48.472;8.166;2023-04-03T09:33:47;98972.63;;;7.58;56.76
54876;BME280;40764;48.472;8.166;2023-04-03T09:39:52;98970.22;;;7.93;54.58
54876;BME280;40764;48.472;8.166;2023-04-03T09:45:56;98979.28;;;7.72;55.03
54876;BME280;40764;48.472;8.166;2023-04-03T09:52:24;98986.81;;;7.92;52.14
54876;BME280;40764;48.472;8.166;2023-04-03T09:58:38;98980.66;;;8.06;51.90
54876;BME280;40764;48.472;8.166;2023-04-03T10:04:43;98971.97;;;8.42;51.37
54876;BME280;40764;48.472;8.166;2023-04-03T10:10:47;98966.38;;;8.63;52.14
54876;BME280;40764;48.472;8.166;2023-04-03T10:23:21;98961.22;;;8.30;52.60
54876;BME280;40764;48.472;8.166;2023-04-03T10:48:07;98967.66;;;8.46;51.93
54876;BME280;40764;48.472;8.166;2023-04-03T10:54:25;98960.59;;;8.55;51.05
54876;BME280;40764;48.472;8.166;2023-04-03T11:00:35;98963.41;;;8.28;50.06
54876;BME280;40764;48.472;8.166;2023-04-03T11:06:48;98958.97;;;8.54;53.33
54876;BME280;40764;48.472;8.166;2023-04-03T11:13:15;98959.50;;;9.03;51.68
54876;BME280;40764;48.472;8.166;2023-04-03T11:19:20;98953.97;;;8.93;48.61
54876;BME280;40764;48.472;8.166;2023-04-03T11:25:25;98947.13;;;8.01;50.35
54876;BME280;40764;48.472;8.166;2023-04-03T11:37:40;98954.03;;;9.03;48.98
54876;BME280;40764;48.472;8.166;2023-04-03T11:43:57;98940.72;;;9.22;49.94
54876;BME280;40764;48.472;8.166;2023-04-03T11:50:01;98939.50;;;8.87;48.20
54876;BME280;40764;48.472;8.166;2023-04-03T12:02:36;98940.16;;;8.52;50.88
54876;BME280;40764;48.472;8.166;2023-04-03T12:14:41;98935.25;;;8.49;47.76
54876;BME280;40764;48.472;8.166;2023-04-03T12:33:17;98926.63;;;8.67;49.93
54876;BME280;40764;48.472;8.166;2023-04-03T12:39:44;98939.75;;;7.64;50.17
54876;BME280;40764;48.472;8.166;2023-04-03T12:45:58;98927.44;;;8.26;51.53
54876;BME280;40764;48.472;8.166;2023-04-03T12:52:05;98925.19;;;8.60;51.35
54876;BME280;40764;48.472;8.166;2023-04-03T12:58:27;98928.59;;;7.98;52.04
54876;BME280;40764;48.472;8.166;2023-04-03T13:04:28;98924.63;;;8.53;50.93
54876;BME280;40764;48.472;8.166;2023-04-03T13:10:30;98915.56;;;8.99;50.26
54876;BME280;40764;48.472;8.166;2023-04-03T13:16:33;98915.06;;;9.13;50.33
54876;BME280;40764;48.472;8.166;2023-04-03T13:22:36;98917.13;;;8.75;51.21
54876;BME280;40764;48.472;8.166;2023-04-03T13:28:44;98918.94;;;8.59;51.57
54876;BME280;40764;48.472;8.166;2023-04-03T13:34:48;98922.47;;;8.55;49.83
54876;BME280;40764;48.472;8.166;2023-04-03T13:41:01;98911.09;;;8.68;49.30
54876;BME280;40764;48.472;8.166;2023-04-03T13:53:12;98903.63;;;8.48;49.85
54876;BME280;40764;48.472;8.166;2023-04-03T14:05:23;98904.72;;;9.20;49.18
54876;BME280;40764;48.472;8.166;2023-04-03T14:11:29;98901.50;;;8.65;49.28
54876;BME280;40764;48.472;8.166;2023-04-03T14:17:31;98906.03;;;8.40;49.71
54876;BME280;40764;48.472;8.166;2023-04-03T14:23:31;98905.06;;;8.19;49.61
54876;BME280;40764;48.472;8.166;2023-04-03T14:29:33;98899.63;;;8.19;49.74
54876;BME280;40764;48.472;8.166;2023-04-03T14:35:33;98893.78;;;9.10;49.16
54876;BME280;40764;48.472;8.166;2023-04-03T14:41:34;98887.78;;;9.03;48.93
54876;BME280;40764;48.472;8.166;2023-04-03T14:47:40;98884.28;;;8.07;48.28
54876;BME280;40764;48.472;8.166;2023-04-03T14:53:43;98893.09;;;7.83;48.37
54876;BME280;40764;48.472;8.166;2023-04-03T14:59:45;98888.13;;;8.12;48.50
54876;BME280;40764;48.472;8.166;2023-04-03T15:05:47;98891.56;;;7.97;47.81
54876;BME280;40764;48.472;8.166;2023-04-03T15:11:50;98880.78;;;8.12;47.17
54876;BME280;40764;48.472;8.166;2023-04-03T15:17:53;98878.66;;;8.72;44.26
54876;BME280;40764;48.472;8.166;2023-04-03T15:23:54;98872.84;;;9.71;43.36
54876;BME280;40764;48.472;8.166;2023-04-03T15:29:55;98882.81;;;8.89;45.59
54876;BME280;40764;48.472;8.166;2023-04-03T15:35:55;98890.47;;;7.98;45.49
54876;BME280;40764;48.472;8.166;2023-04-03T15:41:56;98889.63;;;7.55;45.87
54876;BME280;40764;48.472;8.166;2023-04-03T15:47:59;98881.44;;;7.55;46.10
54876;BME280;40764;48.472;8.166;2023-04-03T15:54:00;98875.50;;;8.37;44.99
54876;BME280;40764;48.472;8.166;2023-04-03T16:00:00;98878.03;;;9.93;42.81
54876;BME280;40764;48.472;8.166;2023-04-03T16:06:01;98863.59;;;8.54;44.44
54876;BME280;40764;48.472;8.166;2023-04-03T16:12:02;98875.91;;;8.14;46.36
54876;BME280;40764;48.472;8.166;2023-04-03T16:18:05;98880.25;;;7.78;46.43
54876;BME280;40764;48.472;8.166;2023-04-03T16:24:18;98879.75;;;7.49;47.17
54876;BME280;40764;48.472;8.166;2023-04-03T16:30:19;98877.53;;;7.46;46.28
54876;BME280;40764;48.472;8.166;2023-04-03T16:36:19;98881.19;;;7.94;47.07
54876;BME280;40764;48.472;8.166;2023-04-03T16:42:20;98873.91;;;8.04;45.53
54876;BME280;40764;48.472;8.166;2023-04-03T16:48:20;98874.47;;;7.69;45.59
54876;BME280;40764;48.472;8.166;2023-04-03T16:54:20;98879.56;;;7.56;47.44
54876;BME280;40764;48.472;8.166;2023-04-03T17:00:21;98870.44;;;7.13;48.28
54876;BME280;40764;48.472;8.166;2023-04-03T17:06:22;98883.94;;;6.81;47.06
54876;BME280;40764;48.472;8.166;2023-04-03T17:12:23;98874.63;;;6.72;47.51
54876;BME280;40764;48.472;8.166;2023-04-03T17:18:26;98892.97;;;6.65;47.69
54876;BME280;40764;48.472;8.166;2023-04-03T17:24:27;98889.56;;;6.31;48.59
54876;BME280;40764;48.472;8.166;2023-04-03T17:30:27;98886.53;;;6.27;49.65
54876;BME280;40764;48.472;8.166;2023-04-03T17:36:30;98891.34;;;6.42;50.29
54876;BME280;40764;48.472;8.166;2023-04-03T17:42:31;98900.94;;;6.28;51.46
54876;BME280;40764;48.472;8.166;2023-04-03T17:48:32;98895.22;;;6.07;52.95
54876;BME280;40764;48.472;8.166;2023-04-03T17:54:34;98900.16;;;5.94;54.33
54876;BME280;40764;48.472;8.166;2023-04-03T18:00:35;98909.00;;;5.39;56.68
54876;BME280;40764;48.472;8.166;2023-04-03T18:06:39;98905.63;;;5.03;59.05
54876;BME280;40764;48.472;8.166;2023-04-03T18:12:40;98894.97;;;4.85;58.78
54876;BME280;40764;48.472;8.166;2023-04-03T18:18:41;98898.59;;;5.19;56.20
54876;BME280;40764;48.472;8.166;2023-04-03T18:24:42;98902.69;;;5.05;53.52
54876;BME280;40764;48.472;8.166;2023-04-03T18:30:43;98897.75;;;4.73;56.90
54876;BME280;40764;48.472;8.166;2023-04-03T18:36:43;98914.97;;;4.55;57.18
54876;BME280;40764;48.472;8.166;2023-04-03T18:42:45;98911.53;;;4.60;57.46
54876;BME280;40764;48.472;8.166;2023-04-03T18:48:45;98911.69;;;4.53;56.93
54876;BME280;40764;48.472;8.166;2023-04-03T18:54:54;98917.38;;;4.28;60.01
54876;BME280;40764;48.472;8.166;2023-04-03T19:00:57;98927.63;;;3.80;62.70
54876;BME280;40764;48.472;8.166;2023-04-03T19:06:57;98930.34;;;3.80;62.30
54876;BME280;40764;48.472;8.166;2023-04-03T19:12:58;98933.03;;;3.80;62.62
54876;BME280;40764;48.472;8.166;2023-04-03T19:18:59;98921.19;;;3.39;63.98
54876;BME280;40764;48.472;8.166;2023-04-03T19:25:00;98927.53;;;3.33;64.29
54876;BME280;40764;48.472;8.166;2023-04-03T19:31:01;98930.22;;;3.33;64.30
54876;BME280;40764;48.472;8.166;2023-04-03T19:37:10;98923.78;;;3.34;65.50
54876;BME280;40764;48.472;8.166;2023-04-03T19:43:12;98930.25;;;3.03;66.72
54876;BME280;40764;48.472;8.166;2023-04-03T19:49:12;98932.47;;;2.76;68.27
54876;BME280;40764;48.472;8.166;2023-04-03T19:55:13;98934.66;;;2.67;69.20
54876;BME280;40764;48.472;8.166;2023-04-03T20:01:13;98925.28;;;2.70;69.22
54876;BME280;40764;48.472;8.166;2023-04-03T20:07:14;98923.72;;;2.44;70.16
54876;BME280;40764;48.472;8.166;2023-04-03T20:13:15;98927.94;;;2.40;70.42
54876;BME280;40764;48.472;8.166;2023-04-03T20:19:15;98924.09;;;2.29;70.65
54876;BME280;40764;48.472;8.166;2023-04-03T20:25:16;98933.41;;;1.90;72.70
54876;BME280;40764;48.472;8.166;2023-04-03T20:31:22;98932.63;;;2.08;71.74
54876;BME280;40764;48.472;8.166;2023-04-03T20:37:29;98923.78;;;2.19;72.32
54876;BME280;40764;48.472;8.166;2023-04-03T20:43:29;98924.94;;;1.86;73.99
54876;BME280;40764;48.472;8.166;2023-04-03T20:49:30;98929.97;;;1.58;74.94
54876;BME280;40764;48.472;8.166;2023-04-03T20:55:31;98923.31;;;1.61;74.94
54876;BME280;40764;48.472;8.166;2023-04-03T21:01:38;98912.00;;;1.70;74.45
54876;BME280;40764;48.472;8.166;2023-04-03T21:21:21;98914.38;;;1.35;76.25
54876;BME280;40764;48.472;8.166;2023-04-03T21:27:42;98900.47;;;1.63;75.71
54876;BME280;40764;48.472;8.166;2023-04-03T21:33:42;98904.44;;;1.61;74.11
54876;BME280;40764;48.472;8.166;2023-04-03T21:39:42;98895.44;;;1.48;75.09
54876;BME280;40764;48.472;8.166;2023-04-03T21:45:44;98908.22;;;1.28;75.28
54876;BME280;40764;48.472;8.166;2023-04-03T21:51:44;98903.97;;;1.45;75.00
54876;BME280;40764;48.472;8.166;2023-04-03T21:57:53;98905.03;;;1.38;74.68
54876;BME280;40764;48.472;8.166;2023-04-03T22:04:00;98902.34;;;1.38;74.31
54876;BME280;40764;48.472;8.166;2023-04-03T22:10:03;98906.13;;;1.30;75.17
54876;BME280;40764;48.472;8.166;2023-04-03T22:16:03;98899.69;;;1.31;75.83
54876;BME280;40764;48.472;8.166;2023-04-03T22:22:18;98911.38;;;1.50;73.57
54876;BME280;40764;48.472;8.166;2023-04-03T22:28:25;98908.03;;;1.54;73.50
54876;BME280;40764;48.472;8.166;2023-04-03T22:34:34;98909.00;;;1.35;74.10
54876;BME280;40764;48.472;8.166;2023-04-03T22:40:38;98911.97;;;1.27;74.21
54876;BME280;40764;48.472;8.166;2023-04-03T22:46:38;98909.50;;;1.26;74.75
54876;BME280;40764;48.472;8.166;2023-04-03T22:52:39;98908.69;;;1.50;72.56
54876;BME280;40764;48.472;8.166;2023-04-03T22:58:39;98905.38;;;1.48;72.59
54876;BME280;40764;48.472;8.166;2023-04-03T23:04:39;98907.19;;;1.29;72.96
54876;BME280;40764;48.472;8.166;2023-04-03T23:10:40;98903.47;;;1.73;69.11
54876;BME280;40764;48.472;8.166;2023-04-03T23:16:40;98904.13;;;1.75;68.15
54876;BME280;40764;48.472;8.166;2023-04-03T23:22:42;98896.38;;;2.22;63.50
54876;BME280;40764;48.472;8.166;2023-04-03T23:28:43;98897.50;;;2.33;62.75
54876;BME280;40764;48.472;8.166;2023-04-03T23:34:43;98888.88;;;2.24;62.45
54876;BME280;40764;48.472;8.166;2023-04-03T23:40:44;98898.69;;;2.18;62.31
54876;BME280;40764;48.472;8.166;2023-04-03T23:46:46;98890.06;;;2.10;63.12
54876;BME280;40764;48.472;8.166;2023-04-03T23:52:46;98892.56;;;2.11;61.62
54876;BME280;40764;48.472;8.166;2023-04-03T23:58:46;98897.91;;;1.93;63.31
